createdAt,value
2023-04-18T00:00:21.751Z,60.35
2023-04-18T00:01:21.763Z,57.53
2023-04-18T00:02:22.017Z,56.96
2023-04-18T00:03:21.128Z,58.83
2023-04-18T00:04:21.367Z,56.09
2023-04-18T00:05:21.063Z,54.04
2023-04-18T00:06:21.995Z,52.94
2023-04-18T00:07:21.037Z,52.89
2023-04-18T00:08:21.080Z,52.81
2023-04-18T00:09:22.158Z,51.61
2023-04-18T00:10:22.140Z,50.57
2023-04-18T00:11:21.169Z,51.94
2023-04-18T00:12:22.175Z,54.24
2023-04-18T00:13:22.208Z,53.98
2023-04-18T00:14:22.206Z,55.46
2023-04-18T00:15:21.243Z,54.49
2023-04-18T00:16:22.291Z,51.24
2023-04-18T00:17:22.314Z,53.57
2023-04-18T00:18:22.544Z,52.03
2023-04-18T00:19:21.374Z,49.27
2023-04-18T00:20:22.437Z,50.70
2023-04-18T00:21:22.465Z,52.57
2023-04-18T00:22:22.538Z,52.64
2023-04-18T00:23:21.562Z,52.90
2023-04-18T00:24:21.522Z,51.32
2023-04-18T00:25:22.576Z,50.98
2023-04-18T00:26:22.605Z,50.25
2023-04-18T00:27:21.624Z,50.95
2023-04-18T00:28:22.659Z,46.44
2023-04-18T00:29:22.722Z,50.51
2023-04-18T00:30:22.786Z,49.85
2023-04-18T00:31:21.860Z,49.55
2023-04-18T00:32:22.913Z,52.54
2023-04-18T00:33:21.906Z,48.99
2023-04-18T00:34:21.979Z,48.36
2023-04-18T00:35:21.973Z,50.35
2023-04-18T00:36:22.979Z,52.74
2023-04-18T00:37:22.011Z,53.10
2023-04-18T00:38:22.053Z,56.64
2023-04-18T00:39:22.065Z,56.80
2023-04-18T00:40:23.104Z,51.34
2023-04-18T00:41:23.075Z,51.24
2023-04-18T00:42:22.098Z,51.40
2023-04-18T00:43:23.131Z,52.65
2023-04-18T00:44:22.133Z,51.86
2023-04-18T00:45:23.152Z,52.61
2023-04-18T00:46:23.181Z,50.10
2023-04-18T00:47:22.271Z,51.55
2023-04-18T00:48:22.135Z,50.82
2023-04-18T00:49:22.157Z,49.71
2023-04-18T00:50:23.334Z,46.96
2023-04-18T00:51:23.212Z,47.26
2023-04-18T00:52:23.252Z,49.63
2023-04-18T00:53:23.283Z,49.26
2023-04-18T00:54:22.317Z,49.83
2023-04-18T00:55:23.361Z,48.00
2023-04-18T00:56:23.356Z,46.27
2023-04-18T00:57:23.370Z,46.30
2023-04-18T00:58:23.395Z,48.13
2023-04-18T00:59:23.410Z,50.07
2023-04-18T01:00:22.423Z,48.01
2023-04-18T01:01:23.520Z,47.07
2023-04-18T01:02:23.669Z,49.79
2023-04-18T01:03:22.614Z,48.96
2023-04-18T01:04:22.741Z,49.06
2023-04-18T01:05:22.603Z,44.64
2023-04-18T01:06:22.646Z,46.80
2023-04-18T01:07:22.653Z,50.80
2023-04-18T01:08:23.662Z,50.93
2023-04-18T01:09:23.696Z,50.95
2023-04-18T01:10:22.696Z,49.64
2023-04-18T01:11:22.726Z,49.38
2023-04-18T01:12:23.781Z,48.63
2023-04-18T01:13:22.782Z,50.43
2023-04-18T01:14:23.865Z,53.08
2023-04-18T01:15:22.869Z,50.88
2023-04-18T01:16:24.072Z,51.51
2023-04-18T01:17:22.946Z,49.12
2023-04-18T01:18:24.034Z,53.87
2023-04-18T01:19:24.078Z,51.89
2023-04-18T01:20:22.986Z,50.71
2023-04-18T01:21:24.032Z,48.65
2023-04-18T01:22:24.060Z,48.57
2023-04-18T01:23:24.075Z,46.14
2023-04-18T01:24:24.144Z,48.68
2023-04-18T01:25:24.041Z,48.53
2023-04-18T01:26:24.133Z,52.58
2023-04-18T01:27:24.108Z,48.91
2023-04-18T01:28:23.064Z,47.19
2023-04-18T01:29:24.154Z,47.20
2023-04-18T01:30:24.098Z,48.98
2023-04-18T01:31:23.118Z,48.82
2023-04-18T01:32:23.108Z,50.20
2023-04-18T01:33:23.108Z,42.75
2023-04-18T01:34:24.229Z,41.65
2023-04-18T01:35:24.209Z,40.36
2023-04-18T01:36:23.268Z,40.48
2023-04-18T01:37:24.348Z,39.97
2023-04-18T01:38:23.376Z,43.24
2023-04-18T01:39:23.398Z,49.17
2023-04-18T01:40:23.458Z,49.34
2023-04-18T01:41:24.485Z,48.20
2023-04-18T01:42:24.557Z,48.93
2023-04-18T01:43:23.602Z,44.51
2023-04-18T01:44:23.637Z,53.55
2023-04-18T01:45:24.709Z,54.37
2023-04-18T01:46:23.814Z,59.50
2023-04-18T01:47:24.943Z,52.77
2023-04-18T01:48:24.858Z,50.32
2023-04-18T01:49:23.927Z,55.40
2023-04-18T01:50:24.973Z,51.99
2023-04-18T01:51:25.028Z,49.43
2023-04-18T01:52:25.076Z,50.48
2023-04-18T01:53:25.168Z,50.59
2023-04-18T01:54:24.169Z,46.94
2023-04-18T01:55:25.223Z,48.28
2023-04-18T01:56:25.258Z,45.42
2023-04-18T01:57:25.301Z,43.06
2023-04-18T01:58:24.355Z,47.84
2023-04-18T01:59:24.428Z,38.99
2023-04-18T02:00:25.427Z,37.25
2023-04-18T02:01:24.517Z,30.51
2023-04-18T02:02:24.610Z,29.33
2023-04-18T02:03:25.723Z,27.04
2023-04-18T02:04:25.551Z,28.17
2023-04-18T02:05:25.572Z,25.13
2023-04-18T02:06:24.589Z,27.77
2023-04-18T02:07:24.621Z,27.30
2023-04-18T02:08:24.651Z,27.96
2023-04-18T02:09:24.689Z,27.97
2023-04-18T02:10:25.666Z,27.19
2023-04-18T02:11:25.704Z,28.23
2023-04-18T02:12:24.721Z,26.59
2023-04-18T02:13:25.747Z,25.41
2023-04-18T02:14:24.758Z,27.22
2023-04-18T02:15:25.774Z,28.08
2023-04-18T02:16:25.964Z,27.46
2023-04-18T02:17:24.828Z,25.51
2023-04-18T02:18:24.817Z,27.53
2023-04-18T02:19:25.816Z,26.63
2023-04-18T02:20:24.810Z,26.97
2023-04-18T02:21:25.814Z,25.00
2023-04-18T02:22:24.864Z,28.73
2023-04-18T02:23:24.825Z,26.48
2023-04-18T02:24:24.829Z,25.00
2023-04-18T02:25:25.847Z,27.15
2023-04-18T02:26:24.823Z,25.02
2023-04-18T02:27:24.842Z,27.26
2023-04-18T02:28:25.867Z,26.58
2023-04-18T02:29:25.853Z,27.61
2023-04-18T02:30:24.815Z,28.54
2023-04-18T02:31:25.825Z,27.99
2023-04-18T02:32:24.904Z,24.98
2023-04-18T02:33:25.825Z,28.25
2023-04-18T02:34:25.833Z,25.80
2023-04-18T02:35:24.802Z,30.03
2023-04-18T02:36:25.802Z,28.34
2023-04-18T02:37:25.802Z,29.08
2023-04-18T02:38:24.810Z,27.73
2023-04-18T02:39:24.828Z,27.50
2023-04-18T02:40:25.804Z,26.16
2023-04-18T02:41:24.862Z,28.67
2023-04-18T02:42:24.821Z,26.67
2023-04-18T02:43:24.847Z,28.85
2023-04-18T02:44:24.857Z,26.12
2023-04-18T02:45:25.876Z,28.11
2023-04-18T02:46:25.015Z,29.07
2023-04-18T02:47:25.948Z,26.58
2023-04-18T02:48:25.942Z,29.61
2023-04-18T02:49:25.917Z,26.19
2023-04-18T02:50:25.076Z,27.43
2023-04-18T02:51:25.917Z,25.58
2023-04-18T02:52:25.966Z,25.94
2023-04-18T02:53:25.971Z,29.28
2023-04-18T02:54:26.013Z,28.05
2023-04-18T02:55:26.029Z,27.60
2023-04-18T02:56:26.041Z,26.21
2023-04-18T02:57:26.082Z,28.63
2023-04-18T02:58:25.071Z,29.26
2023-04-18T02:59:26.093Z,28.32
2023-04-18T03:00:26.134Z,29.12
2023-04-18T03:01:25.223Z,25.00
2023-04-18T03:02:26.349Z,28.10
2023-04-18T03:03:26.320Z,28.81
2023-04-18T03:04:26.294Z,26.92
2023-04-18T03:05:25.285Z,28.34
2023-04-18T03:06:26.327Z,28.50
2023-04-18T03:07:26.361Z,28.38
2023-04-18T03:08:26.397Z,28.53
2023-04-18T03:09:26.428Z,25.46
2023-04-18T03:10:26.457Z,25.92
2023-04-18T03:11:26.500Z,26.45
2023-04-18T03:12:26.541Z,26.33
2023-04-18T03:13:26.624Z,26.85
2023-04-18T03:14:26.580Z,28.17
2023-04-18T03:15:25.622Z,27.45
2023-04-18T03:16:25.697Z,27.74
2023-04-18T03:17:26.738Z,25.01
2023-04-18T03:18:25.745Z,27.06
2023-04-18T03:19:26.755Z,27.47
2023-04-18T03:20:26.803Z,25.95
2023-04-18T03:21:26.847Z,29.37
2023-04-18T03:22:26.893Z,27.43
2023-04-18T03:23:25.970Z,28.38
2023-04-18T03:24:27.026Z,26.50
2023-04-18T03:25:26.080Z,26.06
2023-04-18T03:26:26.152Z,26.93
2023-04-18T03:27:27.196Z,27.91
2023-04-18T03:28:27.260Z,27.61
2023-04-18T03:29:26.363Z,28.04
2023-04-18T03:30:26.356Z,26.03
2023-04-18T03:31:27.492Z,25.04
2023-04-18T03:32:27.495Z,27.46
2023-04-18T03:33:27.534Z,27.65
2023-04-18T03:34:26.601Z,27.13
2023-04-18T03:35:26.653Z,26.64
2023-04-18T03:36:26.690Z,26.02
2023-04-18T03:37:27.730Z,26.78
2023-04-18T03:38:27.791Z,26.84
2023-04-18T03:39:26.865Z,29.78
2023-04-18T03:40:27.920Z,31.16
2023-04-18T03:41:28.008Z,27.18
2023-04-18T03:42:27.047Z,27.49
2023-04-18T03:43:28.079Z,29.38
2023-04-18T03:44:28.128Z,25.86
2023-04-18T03:45:27.219Z,26.79
2023-04-18T03:46:27.265Z,27.12
2023-04-18T03:47:28.328Z,25.69
2023-04-18T03:48:28.377Z,27.21
2023-04-18T03:49:27.441Z,28.09
2023-04-18T03:50:27.495Z,29.13
2023-04-18T03:51:28.540Z,28.70
2023-04-18T03:52:29.922Z,26.41
2023-04-18T03:53:28.643Z,28.01
2023-04-18T03:54:27.711Z,27.18
2023-04-18T03:55:28.762Z,28.15
2023-04-18T03:56:28.807Z,28.24
2023-04-18T03:57:27.862Z,26.44
2023-04-18T03:58:27.931Z,27.27
2023-04-18T03:59:27.996Z,27.33
2023-04-18T04:00:28.033Z,27.17
2023-04-18T04:01:29.147Z,30.22
2023-04-18T04:02:28.225Z,27.41
2023-04-18T04:03:28.254Z,30.00
2023-04-18T04:04:29.234Z,28.04
2023-04-18T04:05:29.252Z,27.52
2023-04-18T04:06:28.298Z,29.46
2023-04-18T04:07:28.330Z,27.84
2023-04-18T04:08:28.427Z,28.57
2023-04-18T04:09:29.398Z,27.51
2023-04-18T04:10:29.436Z,28.46
2023-04-18T04:11:28.459Z,26.87
2023-04-18T04:12:28.488Z,26.51
2023-04-18T04:13:28.526Z,26.69
2023-04-18T04:14:28.549Z,27.61
2023-04-18T04:15:28.603Z,29.31
2023-04-18T04:16:29.699Z,28.27
2023-04-18T04:17:29.716Z,27.10
2023-04-18T04:18:29.727Z,26.81
2023-04-18T04:19:29.708Z,27.76
2023-04-18T04:20:29.709Z,27.83
2023-04-18T04:21:28.704Z,25.84
2023-04-18T04:22:29.721Z,29.27
2023-04-18T04:23:29.798Z,25.88
2023-04-18T04:24:29.749Z,28.88
2023-04-18T04:25:28.873Z,28.96
2023-04-18T04:26:29.745Z,27.68
2023-04-18T04:27:29.742Z,26.62
2023-04-18T04:28:28.762Z,26.38
2023-04-18T04:29:28.761Z,27.50
2023-04-18T04:30:29.759Z,28.89
2023-04-18T04:31:28.843Z,25.95
2023-04-18T04:32:28.820Z,27.78
2023-04-18T04:33:28.855Z,26.31
2023-04-18T04:34:29.797Z,26.59
2023-04-18T04:35:28.808Z,28.07
2023-04-18T04:36:29.781Z,27.58
2023-04-18T04:37:29.801Z,28.43
2023-04-18T04:38:29.814Z,27.60
2023-04-18T04:39:29.841Z,26.71
2023-04-18T04:40:29.825Z,29.89
2023-04-18T04:41:29.855Z,27.21
2023-04-18T04:42:29.886Z,28.17
2023-04-18T04:43:29.910Z,29.57
2023-04-18T04:44:30.022Z,29.26
2023-04-18T04:45:30.034Z,28.09
2023-04-18T04:46:29.054Z,25.30
2023-04-18T04:47:29.124Z,28.30
2023-04-18T04:48:29.135Z,26.22
2023-04-18T04:49:29.195Z,25.00
2023-04-18T04:50:29.212Z,26.61
2023-04-18T04:51:30.246Z,28.70
2023-04-18T04:52:30.306Z,29.09
2023-04-18T04:53:30.378Z,26.87
2023-04-18T04:54:30.423Z,25.82
2023-04-18T04:55:30.460Z,28.94
2023-04-18T04:56:30.518Z,26.10
2023-04-18T04:57:30.553Z,30.07
2023-04-18T04:58:30.617Z,29.05
2023-04-18T04:59:30.674Z,25.87
2023-04-18T05:00:29.736Z,26.89
2023-04-18T05:01:30.804Z,28.20
2023-04-18T05:02:31.101Z,27.91
2023-04-18T05:03:29.965Z,26.14
2023-04-18T05:04:31.020Z,25.00
2023-04-18T05:05:30.029Z,30.81
2023-04-18T05:06:30.050Z,28.44
2023-04-18T05:07:31.109Z,28.92
2023-04-18T05:08:31.181Z,28.12
2023-04-18T05:09:30.241Z,29.42
2023-04-18T05:10:30.314Z,29.36
2023-04-18T05:11:31.375Z,28.97
2023-04-18T05:12:30.423Z,28.53
2023-04-18T05:13:31.468Z,30.91
2023-04-18T05:14:31.511Z,28.30
2023-04-18T05:15:30.588Z,28.48
2023-04-18T05:16:30.637Z,28.08
2023-04-18T05:17:31.693Z,30.46
2023-04-18T05:18:31.577Z,28.43
2023-04-18T05:19:30.788Z,30.18
2023-04-18T05:20:31.841Z,28.25
2023-04-18T05:21:30.924Z,30.06
2023-04-18T05:22:30.982Z,28.66
2023-04-18T05:23:31.041Z,29.46
2023-04-18T05:24:32.084Z,30.08
2023-04-18T05:25:32.170Z,27.95
2023-04-18T05:26:32.200Z,29.88
2023-04-18T05:27:31.275Z,31.54
2023-04-18T05:28:32.387Z,29.93
2023-04-18T05:29:32.425Z,32.08
2023-04-18T05:30:32.428Z,29.94
2023-04-18T05:31:32.513Z,34.20
2023-04-18T05:32:32.538Z,38.90
2023-04-18T05:33:31.611Z,39.75
2023-04-18T05:34:31.646Z,42.17
2023-04-18T05:35:32.713Z,57.44
2023-04-18T05:36:31.752Z,56.90
2023-04-18T05:37:32.820Z,61.70
2023-04-18T05:38:32.862Z,57.14
2023-04-18T05:39:32.919Z,55.60
2023-04-18T05:40:32.984Z,45.64
2023-04-18T05:41:33.040Z,37.52
2023-04-18T05:42:33.073Z,21.39
2023-04-18T05:43:33.138Z,26.12
2023-04-18T05:44:33.156Z,25.02
2023-04-18T05:45:33.176Z,25.29
2023-04-18T05:46:33.294Z,25.60
2023-04-18T05:47:33.273Z,25.00
2023-04-18T05:48:33.308Z,38.51
2023-04-18T05:49:32.319Z,46.05
2023-04-18T05:50:33.344Z,46.83
2023-04-18T05:51:33.369Z,43.88
2023-04-18T05:52:32.380Z,43.30
2023-04-18T05:53:33.424Z,34.82
2023-04-18T05:54:32.439Z,25.00
2023-04-18T05:55:33.460Z,27.82
2023-04-18T05:56:33.524Z,27.48
2023-04-18T05:57:32.581Z,37.23
2023-04-18T05:58:33.604Z,38.69
2023-04-18T05:59:32.629Z,42.01
2023-04-18T06:00:33.853Z,41.78
2023-04-18T06:01:32.655Z,54.11
2023-04-18T06:02:33.946Z,49.17
2023-04-18T06:03:34.011Z,51.74
2023-04-18T06:04:33.906Z,51.13
2023-04-18T06:05:32.947Z,52.44
2023-04-18T06:06:33.876Z,52.54
2023-04-18T06:07:33.810Z,55.50
2023-04-18T06:08:32.829Z,60.37
2023-04-18T06:09:33.923Z,66.95
2023-04-18T06:10:33.940Z,74.46
2023-04-18T06:11:33.058Z,77.60
2023-04-18T06:12:33.032Z,82.68
2023-04-18T06:13:34.098Z,89.11
2023-04-18T06:14:33.140Z,91.59
2023-04-18T06:15:34.148Z,97.06
2023-04-18T06:16:34.287Z,100.49
2023-04-18T06:17:34.220Z,104.94
2023-04-18T06:18:34.146Z,110.35
2023-04-18T06:19:33.137Z,112.96
2023-04-18T06:20:33.175Z,120.89
2023-04-18T06:21:33.230Z,121.68
2023-04-18T06:22:34.190Z,127.27
2023-04-18T06:23:34.226Z,128.99
2023-04-18T06:24:33.231Z,132.89
2023-04-18T06:25:34.291Z,134.13
2023-04-18T06:26:34.268Z,138.53
2023-04-18T06:27:33.256Z,142.40
2023-04-18T06:28:34.292Z,152.87
2023-04-18T06:29:35.594Z,150.46
2023-04-18T06:30:34.303Z,150.99
2023-04-18T06:31:34.401Z,156.40
2023-04-18T06:32:34.307Z,161.29
2023-04-18T06:33:34.300Z,159.05
2023-04-18T06:34:33.246Z,159.78
2023-04-18T06:35:33.254Z,158.72
2023-04-18T06:36:34.222Z,165.39
2023-04-18T06:37:34.264Z,168.92
2023-04-18T06:38:34.228Z,170.00
2023-04-18T06:39:33.231Z,171.77
2023-04-18T06:40:33.207Z,173.65
2023-04-18T06:41:33.231Z,173.09
2023-04-18T06:42:34.187Z,169.47
2023-04-18T06:43:33.196Z,176.67
2023-04-18T06:44:34.166Z,179.91
2023-04-18T06:45:33.193Z,178.80
2023-04-18T06:46:34.223Z,180.61
2023-04-18T06:47:33.169Z,180.39
2023-04-18T06:48:34.191Z,181.80
2023-04-18T06:49:33.140Z,184.03
2023-04-18T06:50:33.176Z,186.25
2023-04-18T06:51:34.144Z,187.07
2023-04-18T06:52:34.129Z,190.93
2023-04-18T06:53:34.184Z,194.80
2023-04-18T06:54:34.111Z,199.60
2023-04-18T06:55:34.355Z,203.84
2023-04-18T06:56:36.349Z,204.37
2023-04-18T06:57:34.149Z,206.44
2023-04-18T06:58:34.110Z,205.40
2023-04-18T06:59:33.178Z,206.73
2023-04-18T07:00:34.133Z,207.45
2023-04-18T07:01:34.239Z,209.21
2023-04-18T07:02:34.182Z,215.77
2023-04-18T07:03:33.158Z,215.21
2023-04-18T07:04:33.147Z,223.02
2023-04-18T07:05:34.077Z,230.14
2023-04-18T07:06:34.064Z,228.11
2023-04-18T07:07:33.063Z,228.60
2023-04-18T07:08:34.041Z,231.36
2023-04-18T07:09:33.060Z,231.41
2023-04-18T07:10:34.019Z,228.48
2023-04-18T07:11:34.061Z,231.52
2023-04-18T07:12:34.085Z,230.19
2023-04-18T07:13:33.113Z,229.73
2023-04-18T07:14:34.356Z,228.66
2023-04-18T07:15:33.992Z,231.65
2023-04-18T07:16:34.026Z,231.76
2023-04-18T07:17:32.997Z,231.62
2023-04-18T07:18:38.076Z,234.24
2023-04-18T07:19:34.175Z,234.38
2023-04-18T07:20:34.088Z,234.77
2023-04-18T07:21:33.104Z,236.16
2023-04-18T07:22:33.081Z,236.71
2023-04-18T07:23:34.178Z,236.30
2023-04-18T07:24:33.097Z,236.91
2023-04-18T07:25:34.130Z,237.48
2023-04-18T07:26:34.129Z,239.51
2023-04-18T07:27:34.076Z,237.90
2023-04-18T07:28:34.104Z,235.57
2023-04-18T07:29:34.072Z,238.20
2023-04-18T07:30:34.067Z,236.65
2023-04-18T07:31:34.194Z,241.97
2023-04-18T07:32:34.083Z,239.66
2023-04-18T07:33:33.049Z,240.57
2023-04-18T07:34:34.063Z,241.70
2023-04-18T07:35:33.081Z,238.35
2023-04-18T07:36:34.072Z,236.52
2023-04-18T07:37:34.037Z,240.35
2023-04-18T07:38:34.075Z,238.48
2023-04-18T07:39:34.098Z,238.32
2023-04-18T07:40:34.062Z,236.87
2023-04-18T07:41:33.094Z,241.14
2023-04-18T07:42:34.109Z,239.23
2023-04-18T07:43:33.116Z,237.44
2023-04-18T07:44:33.119Z,238.77
2023-04-18T07:45:34.203Z,237.89
2023-04-18T07:46:34.164Z,240.58
2023-04-18T07:47:34.206Z,237.82
2023-04-18T07:48:33.132Z,230.69
2023-04-18T07:49:33.129Z,224.76
2023-04-18T07:50:34.361Z,223.44
2023-04-18T07:51:34.117Z,221.66
2023-04-18T07:52:33.116Z,217.20
2023-04-18T07:53:34.113Z,218.32
2023-04-18T07:54:33.111Z,223.82
2023-04-18T07:55:33.118Z,220.45
2023-04-18T07:56:33.185Z,225.16
2023-04-18T07:57:34.117Z,221.88
2023-04-18T07:58:34.221Z,220.60
2023-04-18T07:59:33.109Z,219.64
2023-04-18T08:00:33.170Z,219.50
2023-04-18T08:01:34.375Z,220.11
2023-04-18T08:02:34.223Z,222.23
2023-04-18T08:03:34.484Z,221.11
2023-04-18T08:04:34.555Z,218.36
2023-04-18T08:05:34.205Z,216.84
2023-04-18T08:06:34.155Z,212.64
2023-04-18T08:07:33.081Z,212.38
2023-04-18T08:08:34.151Z,212.92
2023-04-18T08:09:33.075Z,211.42
2023-04-18T08:10:34.081Z,215.63
2023-04-18T08:11:34.110Z,213.39
2023-04-18T08:12:33.117Z,212.66
2023-04-18T08:13:34.100Z,209.81
2023-04-18T08:14:34.149Z,209.05
2023-04-18T08:15:34.126Z,207.77
2023-04-18T08:16:33.175Z,206.99
2023-04-18T08:17:33.230Z,205.09
2023-04-18T08:18:33.080Z,205.09
2023-04-18T08:19:34.125Z,203.73
2023-04-18T08:20:34.090Z,202.62
2023-04-18T08:21:34.223Z,200.92
2023-04-18T08:22:34.176Z,203.60
2023-04-18T08:23:34.080Z,202.71
2023-04-18T08:24:33.060Z,203.07
2023-04-18T08:25:33.089Z,199.70
2023-04-18T08:26:34.121Z,199.20
2023-04-18T08:27:34.362Z,197.31
2023-04-18T08:28:34.183Z,194.04
2023-04-18T08:29:33.119Z,194.60
2023-04-18T08:30:34.174Z,195.41
2023-04-18T08:31:33.298Z,194.50
2023-04-18T08:32:33.191Z,194.89
2023-04-18T08:33:33.367Z,190.92
2023-04-18T08:34:33.264Z,191.04
2023-04-18T08:35:34.250Z,189.86
2023-04-18T08:36:33.233Z,187.67
2023-04-18T08:37:34.186Z,188.13
2023-04-18T08:38:34.200Z,187.52
2023-04-18T08:39:33.257Z,186.57
2023-04-18T08:40:33.230Z,186.12
2023-04-18T08:41:34.396Z,188.59
2023-04-18T08:42:34.245Z,184.33
2023-04-18T08:43:34.272Z,169.57
2023-04-18T08:44:33.307Z,170.34
2023-04-18T08:45:33.495Z,162.00
2023-04-18T08:46:34.380Z,165.23
2023-04-18T08:47:34.374Z,170.66
2023-04-18T08:48:33.374Z,169.98
2023-04-18T08:49:34.415Z,169.38
2023-04-18T08:50:34.422Z,174.61
2023-04-18T08:51:34.430Z,169.30
2023-04-18T08:52:33.497Z,173.71
2023-04-18T08:53:34.493Z,177.75
2023-04-18T08:54:34.469Z,178.00
2023-04-18T08:55:33.457Z,178.09
2023-04-18T08:56:34.940Z,183.08
2023-04-18T08:57:34.486Z,188.43
2023-04-18T08:58:33.508Z,189.21
2023-04-18T08:59:34.537Z,191.64
2023-04-18T09:00:33.544Z,194.75
2023-04-18T09:01:33.590Z,198.21
2023-04-18T09:02:34.594Z,195.89
2023-04-18T09:03:34.627Z,193.51
2023-04-18T09:04:33.600Z,195.38
2023-04-18T09:05:33.730Z,193.33
2023-04-18T09:06:33.568Z,192.13
2023-04-18T09:07:34.561Z,193.27
2023-04-18T09:08:33.582Z,191.67
2023-04-18T09:09:34.622Z,190.90
2023-04-18T09:10:34.601Z,189.41
2023-04-18T09:11:34.625Z,187.00
2023-04-18T09:12:34.604Z,186.67
2023-04-18T09:13:33.598Z,186.87
2023-04-18T09:14:33.601Z,188.00
2023-04-18T09:15:34.617Z,186.11
2023-04-18T09:16:33.642Z,184.58
2023-04-18T09:17:34.690Z,182.40
2023-04-18T09:18:33.584Z,184.02
2023-04-18T09:19:33.600Z,179.88
2023-04-18T09:20:35.196Z,177.57
2023-04-18T09:21:33.875Z,175.76
2023-04-18T09:22:33.872Z,174.84
2023-04-18T09:23:33.948Z,172.92
2023-04-18T09:24:35.027Z,175.86
2023-04-18T09:25:35.015Z,175.28
2023-04-18T09:26:35.037Z,176.75
2023-04-18T09:27:35.042Z,173.38
2023-04-18T09:28:34.027Z,171.80
2023-04-18T09:29:34.998Z,175.61
2023-04-18T09:30:35.110Z,175.72
2023-04-18T09:31:35.134Z,171.73
2023-04-18T09:32:34.058Z,169.64
2023-04-18T09:33:35.062Z,173.48
2023-04-18T09:34:34.078Z,169.53
2023-04-18T09:35:35.089Z,168.78
2023-04-18T09:36:35.125Z,167.58
2023-04-18T09:37:35.135Z,166.88
2023-04-18T09:38:35.149Z,165.01
2023-04-18T09:39:35.223Z,166.06
2023-04-18T09:40:35.222Z,163.30
2023-04-18T09:41:34.250Z,161.35
2023-04-18T09:42:34.299Z,161.25
2023-04-18T09:43:34.340Z,158.65
2023-04-18T09:44:35.493Z,157.94
2023-04-18T09:45:35.554Z,156.30
2023-04-18T09:46:36.113Z,156.27
2023-04-18T09:47:34.819Z,157.49
2023-04-18T09:48:34.493Z,154.18
2023-04-18T09:49:35.557Z,156.37
2023-04-18T09:50:35.602Z,158.69
2023-04-18T09:51:36.027Z,157.05
2023-04-18T09:52:35.610Z,155.95
2023-04-18T09:53:35.726Z,161.19
2023-04-18T09:54:35.637Z,165.48
2023-04-18T09:55:34.725Z,169.28
2023-04-18T09:56:35.915Z,170.03
2023-04-18T09:57:34.778Z,170.57
2023-04-18T09:58:35.836Z,172.13
2023-04-18T09:59:36.056Z,169.52
2023-04-18T10:00:34.744Z,172.25
2023-04-18T10:01:35.838Z,173.05
2023-04-18T10:02:35.844Z,182.37
2023-04-18T10:03:35.850Z,184.04
2023-04-18T10:04:35.946Z,189.37
2023-04-18T10:05:35.906Z,186.60
2023-04-18T10:06:35.806Z,183.52
2023-04-18T10:07:35.785Z,190.88
2023-04-18T10:08:34.829Z,192.50
2023-04-18T10:09:34.786Z,193.19
2023-04-18T10:10:35.767Z,193.41
2023-04-18T10:11:34.816Z,198.85
2023-04-18T10:12:34.820Z,198.18
2023-04-18T10:13:35.824Z,200.85
2023-04-18T10:14:36.025Z,199.29
2023-04-18T10:15:35.013Z,208.54
2023-04-18T10:16:36.441Z,208.98
2023-04-18T10:17:36.075Z,209.12
2023-04-18T10:18:36.136Z,212.11
2023-04-18T10:19:36.396Z,219.88
2023-04-18T10:20:35.572Z,222.32
2023-04-18T10:21:35.253Z,223.00
2023-04-18T10:22:36.297Z,232.59
2023-04-18T10:23:36.648Z,230.07
2023-04-18T10:24:36.419Z,234.35
2023-04-18T10:25:36.663Z,235.72
2023-04-18T10:26:36.753Z,235.93
2023-04-18T10:27:35.517Z,236.17
2023-04-18T10:28:36.537Z,239.70
2023-04-18T10:29:36.616Z,244.70
2023-04-18T10:30:36.579Z,242.61
2023-04-18T10:31:35.678Z,241.44
2023-04-18T10:32:35.689Z,246.93
2023-04-18T10:33:40.946Z,250.25
2023-04-18T10:34:36.714Z,250.34
2023-04-18T10:35:35.714Z,248.97
2023-04-18T10:36:36.677Z,250.21
2023-04-18T10:37:36.645Z,254.68
2023-04-18T10:38:35.637Z,251.63
2023-04-18T10:39:36.643Z,245.94
2023-04-18T10:40:35.739Z,247.26
2023-04-18T10:41:36.686Z,246.14
2023-04-18T10:42:35.854Z,244.44
2023-04-18T10:43:36.605Z,249.34
2023-04-18T10:44:36.603Z,243.66
2023-04-18T10:45:36.682Z,243.15
2023-04-18T10:46:37.009Z,243.42
2023-04-18T10:47:36.681Z,245.33
2023-04-18T10:48:38.563Z,242.97
2023-04-18T10:49:35.588Z,242.64
2023-04-18T10:50:35.607Z,244.86
2023-04-18T10:51:35.582Z,241.59
2023-04-18T10:52:35.612Z,248.32
2023-04-18T10:53:36.542Z,247.68
2023-04-18T10:54:35.539Z,246.69
2023-04-18T10:55:36.518Z,246.29
2023-04-18T10:56:35.528Z,245.13
2023-04-18T10:57:35.552Z,243.78
2023-04-18T10:58:36.520Z,243.39
2023-04-18T10:59:36.505Z,243.60
2023-04-18T11:00:36.545Z,241.18
2023-04-18T11:01:35.605Z,241.01
2023-04-18T11:02:36.579Z,241.46
2023-04-18T11:03:36.484Z,241.84
2023-04-18T11:04:36.515Z,240.58
2023-04-18T11:05:36.459Z,240.50
2023-04-18T11:06:36.461Z,237.88
2023-04-18T11:07:35.428Z,237.88
2023-04-18T11:08:36.442Z,238.86
2023-04-18T11:09:36.464Z,236.70
2023-04-18T11:10:36.501Z,236.28
2023-04-18T11:11:36.430Z,236.98
2023-04-18T11:12:36.567Z,235.98
2023-04-18T11:13:36.426Z,234.72
2023-04-18T11:14:35.402Z,233.69
2023-04-18T11:15:36.391Z,235.24
2023-04-18T11:16:36.484Z,232.97
2023-04-18T11:17:35.415Z,231.46
2023-04-18T11:18:36.375Z,230.69
2023-04-18T11:19:36.347Z,229.68
2023-04-18T11:20:36.384Z,229.85
2023-04-18T11:21:36.438Z,228.85
2023-04-18T11:22:35.511Z,228.61
2023-04-18T11:23:36.570Z,226.78
2023-04-18T11:24:36.674Z,226.43
2023-04-18T11:25:35.696Z,224.98
2023-04-18T11:26:37.264Z,224.42
2023-04-18T11:27:36.835Z,224.79
2023-04-18T11:28:35.867Z,224.31
2023-04-18T11:29:36.978Z,222.64
2023-04-18T11:30:36.985Z,223.06
2023-04-18T11:31:36.053Z,220.76
2023-04-18T11:32:37.167Z,221.53
2023-04-18T11:33:37.142Z,222.05
2023-04-18T11:34:37.203Z,221.20
2023-04-18T11:35:37.265Z,220.75
2023-04-18T11:36:36.332Z,220.12
2023-04-18T11:37:36.446Z,219.34
2023-04-18T11:38:36.461Z,218.81
2023-04-18T11:39:37.494Z,217.75
2023-04-18T11:40:36.557Z,217.49
2023-04-18T11:41:37.609Z,215.73
2023-04-18T11:42:37.671Z,215.27
2023-04-18T11:43:36.705Z,216.27
2023-04-18T11:44:36.770Z,216.79
2023-04-18T11:45:36.957Z,215.35
2023-04-18T11:46:36.926Z,214.28
2023-04-18T11:47:37.001Z,213.82
2023-04-18T11:48:37.003Z,214.67
2023-04-18T11:49:38.047Z,212.71
2023-04-18T11:50:38.120Z,212.66
2023-04-18T11:51:37.169Z,213.00
2023-04-18T11:52:38.229Z,211.64
2023-04-18T11:53:37.281Z,210.61
2023-04-18T11:54:38.352Z,212.50
2023-04-18T11:55:37.401Z,210.73
2023-04-18T11:56:38.460Z,210.18
2023-04-18T11:57:38.562Z,211.70
2023-04-18T11:58:37.608Z,211.65
2023-04-18T11:59:37.665Z,209.88
2023-04-18T12:00:37.742Z,207.46
2023-04-18T12:01:37.938Z,208.65
2023-04-18T12:02:39.025Z,206.77
2023-04-18T12:03:38.174Z,208.01
2023-04-18T12:04:38.148Z,206.35
2023-04-18T12:05:38.498Z,206.02
2023-04-18T12:06:39.066Z,205.35
2023-04-18T12:07:38.139Z,204.85
2023-04-18T12:08:38.191Z,205.89
2023-04-18T12:09:38.238Z,204.89
2023-04-18T12:10:39.296Z,204.16
2023-04-18T12:11:39.372Z,199.91
2023-04-18T12:12:39.445Z,202.44
2023-04-18T12:13:38.511Z,200.96
2023-04-18T12:14:38.537Z,197.48
2023-04-18T12:15:38.762Z,199.15
2023-04-18T12:16:39.649Z,198.10
2023-04-18T12:17:39.780Z,197.66
2023-04-18T12:18:39.776Z,194.72
2023-04-18T12:19:39.801Z,164.14
2023-04-18T12:20:39.881Z,160.53
2023-04-18T12:21:38.886Z,110.96
2023-04-18T12:22:38.910Z,102.13
2023-04-18T12:23:39.936Z,75.37
2023-04-18T12:24:39.972Z,81.91
2023-04-18T12:25:40.012Z,81.08
2023-04-18T12:26:40.019Z,98.12
2023-04-18T12:27:40.023Z,105.86
2023-04-18T12:28:40.031Z,142.62
2023-04-18T12:29:39.046Z,150.88
2023-04-18T12:30:40.055Z,140.22
2023-04-18T12:31:39.110Z,121.72
2023-04-18T12:32:40.140Z,116.67
2023-04-18T12:33:40.123Z,120.70
2023-04-18T12:34:40.113Z,125.75
2023-04-18T12:35:39.125Z,130.87
2023-04-18T12:36:39.149Z,129.51
2023-04-18T12:37:39.164Z,126.58
2023-04-18T12:38:40.138Z,123.45
2023-04-18T12:39:40.150Z,122.53
2023-04-18T12:40:39.191Z,122.56